Time;durP1;ratioP1;P1;durP2;ratioP2;P2;SDS_P1;SDS_P2;PMS_P1;PMS_P2;Temp;Humidity;BMP_temperature;BMP_pressure;BME280_temperature;BME280_humidity;BME280_pressure;Samples;Min_cycle;Max_cycle;Signal;HPM_P1;HPM_P2
2022/06/07 00:01:42;;;;;;;0.80;0.40;;;16.70;99.90;;;;;;5092141;28;20189;-67
2022/06/07 00:04:09;;;;;;;1.27;0.63;;;16.60;99.90;;;;;;5091837;28;20250;-66
2022/06/07 00:06:36;;;;;;;2.93;0.70;;;16.70;99.90;;;;;;5072713;28;20583;-67
2022/06/07 00:09:04;;;;;;;2.13;0.70;;;16.60;99.90;;;;;;5090219;28;20237;-67
2022/06/07 00:11:31;;;;;;;1.67;0.50;;;17.20;99.90;;;;;;5096126;28;20687;-67
2022/06/07 00:13:59;;;;;;;3.17;0.50;;;17.00;99.90;;;;;;5073162;28;20175;-68
2022/06/07 00:16:26;;;;;;;2.30;0.40;;;17.10;99.90;;;;;;5092056;28;20232;-68
2022/06/07 00:18:53;;;;;;;1.30;0.50;;;17.50;99.90;;;;;;5073475;28;20207;-67
2022/06/07 00:21:21;;;;;;;1.90;0.50;;;17.50;99.90;;;;;;5091468;28;20187;-67
2022/06/07 00:23:48;;;;;;;0.83;0.40;;;17.50;99.90;;;;;;5091955;28;20652;-68
2022/06/07 00:26:15;;;;;;;6.90;0.50;;;17.70;99.90;;;;;;5091628;28;20818;-65
2022/06/07 00:28:43;;;;;;;0.40;0.40;;;17.80;99.90;;;;;;5092103;28;20948;-67
2022/06/07 00:31:11;;;;;;;0.20;0.20;;;18.10;99.90;;;;;;5091644;28;20173;-67
2022/06/07 00:33:38;;;;;;;0.47;0.33;;;18.30;99.90;;;;;;5091703;28;20228;-66
2022/06/07 00:36:06;;;;;;;0.60;0.40;;;18.10;99.90;;;;;;5091814;28;20174;-66
2022/06/07 00:38:33;;;;;;;0.83;0.30;;;18.00;99.90;;;;;;5091878;28;20177;-66
2022/06/07 00:41:03;;;;;;;2.00;0.30;;;18.10;99.90;;;;;;5091463;28;20253;-67
2022/06/07 00:43:31;;;;;;;0.57;0.33;;;18.00;99.90;;;;;;5071599;28;20191;-67
2022/06/07 00:45:59;;;;;;;0.77;0.40;;;18.50;99.90;;;;;;5071394;28;20218;-66
2022/06/07 00:48:26;;;;;;;0.50;0.47;;;18.20;99.90;;;;;;5087749;28;20666;-67
2022/06/07 00:50:56;;;;;;;0.70;0.40;;;18.20;99.90;;;;;;5090392;28;20175;-68
2022/06/07 00:53:25;;;;;;;0.90;0.40;;;18.50;99.90;;;;;;5090014;28;20183;-68
2022/06/07 00:55:54;;;;;;;0.30;0.30;;;18.00;99.90;;;;;;5091717;28;20260;-69
2022/06/07 00:58:23;;;;;;;0.87;0.23;;;18.50;99.90;;;;;;5091637;28;20221;-68
2022/06/07 01:00:50;;;;;;;0.23;0.23;;;18.20;98.90;;;;;;5090984;28;20236;-68
2022/06/07 01:03:20;;;;;;;0.73;0.50;;;18.10;99.90;;;;;;5073440;28;20270;-68
2022/06/07 01:05:49;;;;;;;1.67;0.40;;;18.80;99.90;;;;;;5091303;28;20217;-68
2022/06/07 01:11:03;;;;;;;0.77;0.30;;;18.70;98.00;;;;;;5076326;28;20233;-68
2022/06/07 01:13:33;;;;;;;0.43;0.37;;;18.70;98.00;;;;;;5090829;28;20552;-69
2022/06/07 01:16:04;;;;;;;0.83;0.30;;;18.40;97.20;;;;;;5090580;28;20170;-68
2022/06/07 01:18:31;;;;;;;2.20;0.37;;;18.80;96.90;;;;;;5091480;28;20175;-68
2022/06/07 01:21:21;;;;;;;0.40;0.40;;;19.00;96.70;;;;;;5090722;28;20176;-68
2022/06/07 01:23:49;;;;;;;0.73;0.30;;;18.70;94.80;;;;;;5091254;28;20177;-68
2022/06/07 01:26:17;;;;;;;0.30;0.30;;;18.80;96.10;;;;;;5090673;28;20416;-67
2022/06/07 01:28:44;;;;;;;0.30;0.30;;;19.50;95.50;;;;;;5091192;28;20242;-68
2022/06/07 01:31:12;;;;;;;0.97;0.27;;;19.30;95.10;;;;;;5090889;28;20179;-68
2022/06/07 01:33:39;;;;;;;0.43;0.30;;;19.30;93.00;;;;;;5074805;28;20182;-68
2022/06/07 01:36:16;;;;;;;0.23;0.23;;;19.30;93.00;;;;;;5094970;28;20194;-68
2022/06/07 01:38:45;;;;;;;0.63;0.30;;;19.00;93.20;;;;;;5094717;28;20177;-68
2022/06/07 01:43:59;;;;;;;0.30;0.30;;;18.90;92.00;;;;;;5094799;28;20222;-67
2022/06/07 01:46:26;;;;;;;2.10;0.40;;;19.00;91.50;;;;;;5094226;28;20211;-68
2022/06/07 01:48:54;;;;;;;1.13;0.40;;;19.10;90.60;;;;;;5094716;28;20163;-68
2022/06/07 01:51:21;;;;;;;0.23;0.20;;;19.10;90.70;;;;;;5094467;28;20651;-68
2022/06/07 01:53:49;;;;;;;0.20;0.20;;;18.90;89.50;;;;;;5094590;28;20181;-68
2022/06/07 01:56:17;;;;;;;0.33;0.30;;;19.50;91.30;;;;;;5094625;28;20264;-67
2022/06/07 01:58:45;;;;;;;0.30;0.30;;;19.40;89.90;;;;;;5094664;28;20235;-68
2022/06/07 02:01:13;;;;;;;0.30;0.30;;;19.00;87.70;;;;;;5095992;28;20278;-69
2022/06/07 02:03:42;;;;;;;0.33;0.30;;;19.10;88.80;;;;;;5094474;28;20168;-71
2022/06/07 02:06:12;;;;;;;0.20;0.20;;;18.90;86.60;;;;;;5093963;28;20577;-68
2022/06/07 02:08:41;;;;;;;0.20;0.20;;;19.50;88.00;;;;;;5076316;28;20604;-69
2022/06/07 02:11:15;;;;;;;0.30;0.30;;;19.00;83.70;;;;;;5094113;28;20171;-68
2022/06/07 02:13:43;;;;;;;1.37;0.40;;;19.60;86.20;;;;;;5094247;28;20197;-69
2022/06/07 02:16:11;;;;;;;0.20;0.20;;;20.00;82.80;;;;;;5094161;28;20178;-69
2022/06/07 02:18:39;;;;;;;0.20;0.20;;;19.30;81.30;;;;;;5094243;28;20179;-69
2022/06/07 02:21:07;;;;;;;0.20;0.20;;;19.60;85.80;;;;;;5075723;28;20529;-69
2022/06/07 02:23:37;;;;;;;0.30;0.20;;;20.40;84.00;;;;;;5075778;28;20230;-69
2022/06/07 02:26:35;;;;;;;0.30;0.30;;;20.00;77.90;;;;;;5093590;28;20238;-68
2022/06/07 02:29:06;;;;;;;1.80;0.20;;;19.90;76.40;;;;;;5093705;28;20260;-69
2022/06/07 02:31:36;;;;;;;0.27;0.20;;;19.50;77.40;;;;;;5093601;28;20213;-69
2022/06/07 02:34:05;;;;;;;0.30;0.30;;;19.10;78.60;;;;;;5093515;28;20517;-68
2022/06/07 02:36:33;;;;;;;3.53;0.30;;;19.30;80.90;;;;;;5093743;28;20176;-68
2022/06/07 02:39:02;;;;;;;0.30;0.23;;;19.30;80.40;;;;;;5093680;28;20292;-68
2022/06/07 02:41:32;;;;;;;0.20;0.20;;;19.10;82.70;;;;;;5093368;28;20709;-67
2022/06/07 02:43:59;;;;;;;0.63;0.30;;;19.60;79.40;;;;;;5093644;28;20182;-68
2022/06/07 02:46:26;;;;;;;0.50;0.50;;;19.00;75.80;;;;;;5093245;28;20662;-68
2022/06/07 02:48:54;;;;;;;2.53;2.30;;;19.10;76.80;;;;;;5093537;28;20512;-68
2022/06/07 02:51:22;;;;;;;1.30;0.73;;;19.00;76.60;;;;;;5092985;28;20186;-68
2022/06/07 02:53:50;;;;;;;1.13;1.00;;;19.00;77.70;;;;;;5093369;28;20204;-68
2022/06/07 02:56:17;;;;;;;5.33;1.50;;;19.10;78.90;;;;;;5093294;28;20211;-68
2022/06/07 02:58:44;;;;;;;0.40;0.40;;;19.10;75.10;;;;;;5093197;28;20229;-68
2022/06/07 03:01:12;;;;;;;1.57;1.47;;;19.30;76.20;;;;;;5092437;28;20201;-66
2022/06/07 03:03:39;;;;;;;0.50;0.40;;;19.70;76.10;;;;;;5093176;28;20628;-67
2022/06/07 03:06:07;;;;;;;1.23;0.33;;;19.70;72.10;;;;;;5092890;28;20222;-69
2022/06/07 03:08:34;;;;;;;1.10;0.50;;;19.50;72.90;;;;;;5092939;28;20234;-68
2022/06/07 03:11:02;;;;;;;1.43;0.30;;;19.70;73.10;;;;;;5092676;28;20270;-68
2022/06/07 03:13:29;;;;;;;0.80;0.37;;;19.90;74.90;;;;;;5092828;28;20242;-67
2022/06/07 03:15:57;;;;;;;1.70;0.43;;;19.70;71.20;;;;;;5092827;28;20197;-67
2022/06/07 03:18:24;;;;;;;1.50;0.40;;;19.60;71.30;;;;;;5092600;28;20210;-68
2022/06/07 03:20:53;;;;;;;0.57;0.30;;;19.70;70.30;;;;;;5092602;28;20179;-68
2022/06/07 03:23:20;;;;;;;0.40;0.40;;;19.70;71.60;;;;;;5084663;28;20639;-67
2022/06/07 03:25:48;;;;;;;0.40;0.40;;;20.60;73.10;;;;;;5089588;28;20266;-67
2022/06/07 03:28:15;;;;;;;0.80;0.50;;;20.50;68.00;;;;;;5081468;28;20184;-69
2022/06/07 03:30:43;;;;;;;1.30;0.33;;;20.30;70.40;;;;;;5072344;28;20179;-68
2022/06/07 03:33:11;;;;;;;0.40;0.40;;;19.80;69.30;;;;;;5072353;28;20221;-68
2022/06/07 03:35:39;;;;;;;0.40;0.40;;;19.50;67.80;;;;;;5072270;28;20257;-68
2022/06/07 03:38:07;;;;;;;4.03;0.80;;;19.20;67.40;;;;;;5072319;28;20178;-68
2022/06/07 03:40:44;;;;;;;2.37;0.53;;;19.20;67.10;;;;;;5084130;28;20685;-67
2022/06/07 03:43:12;;;;;;;0.70;0.40;;;19.20;68.80;;;;;;5092444;28;20178;-68
2022/06/07 03:45:40;;;;;;;7.13;0.83;;;19.10;68.90;;;;;;5092170;28;20317;-68
2022/06/07 03:48:08;;;;;;;0.30;0.30;;;19.40;69.90;;;;;;5092358;28;20185;-67
2022/06/07 03:50:36;;;;;;;0.30;0.30;;;19.50;68.80;;;;;;5092208;28;20281;-68
2022/06/07 03:53:04;;;;;;;0.37;0.37;;;19.30;67.40;;;;;;5073898;28;20556;-68
2022/06/07 03:55:32;;;;;;;1.17;0.50;;;19.30;68.30;;;;;;5091929;28;20203;-69
2022/06/07 03:57:59;;;;;;;0.30;0.30;;;19.50;70.30;;;;;;5092251;28;20175;-69
2022/06/07 04:00:26;;;;;;;0.50;0.40;;;20.10;69.50;;;;;;5092181;28;20176;-68
2022/06/07 04:02:54;;;;;;;1.60;0.20;;;20.50;69.50;;;;;;5092010;28;20175;-67
2022/06/07 04:05:21;;;;;;;0.43;0.40;;;19.70;68.40;;;;;;5091971;28;20613;-67
2022/06/07 04:10:33;;;;;;;2.33;0.30;;;20.00;72.50;;;;;;5092195;28;20184;-67
2022/06/07 04:13:01;;;;;;;0.93;0.30;;;19.30;69.80;;;;;;5092071;28;20710;-67
2022/06/07 04:15:28;;;;;;;0.67;0.30;;;19.20;70.80;;;;;;5091954;28;20179;-67
2022/06/07 04:17:55;;;;;;;1.87;0.30;;;19.00;69.10;;;;;;5091708;28;20675;-67
2022/06/07 04:20:23;;;;;;;0.70;0.30;;;19.20;69.50;;;;;;5091623;28;20179;-66
2022/06/07 04:22:50;;;;;;;0.67;0.33;;;19.00;69.10;;;;;;5091556;28;20639;-68
2022/06/07 04:25:18;;;;;;;2.80;0.40;;;18.70;69.40;;;;;;5091458;28;20240;-67
2022/06/07 04:27:45;;;;;;;0.63;0.63;;;18.70;71.60;;;;;;5091632;28;20696;-67
2022/06/07 04:30:13;;;;;;;0.40;0.40;;;18.40;71.00;;;;;;5091694;28;20633;-69
2022/06/07 04:32:46;;;;;;;0.30;0.30;;;18.00;70.50;;;;;;5091213;28;20546;-67
2022/06/07 04:35:18;;;;;;;0.63;0.60;;;17.70;74.50;;;;;;5091562;28;20194;-68
2022/06/07 04:37:49;;;;;;;1.33;0.50;;;18.10;75.30;;;;;;5091289;28;20303;-69
2022/06/07 04:40:17;;;;;;;0.53;0.40;;;18.10;73.70;;;;;;5073414;28;20187;-66
2022/06/07 04:42:44;;;;;;;0.40;0.40;;;18.30;75.30;;;;;;5091587;28;20176;-68
2022/06/07 04:45:15;;;;;;;0.30;0.30;;;18.20;75.10;;;;;;5091513;28;20175;-68
2022/06/07 04:47:44;;;;;;;1.40;0.30;;;18.10;75.60;;;;;;5091573;28;20180;-68
2022/06/07 04:50:15;;;;;;;0.70;0.40;;;17.90;73.20;;;;;;5091767;28;20206;-69
2022/06/07 04:52:44;;;;;;;0.40;0.40;;;17.80;73.10;;;;;;5091288;28;20179;-67
2022/06/07 04:55:13;;;;;;;0.30;0.30;;;18.20;74.50;;;;;;5091205;28;20242;-67
2022/06/07 04:57:40;;;;;;;0.63;0.33;;;17.90;72.20;;;;;;5091453;28;20692;-68
2022/06/07 05:00:14;;;;;;;0.30;0.30;;;18.10;73.40;;;;;;5091368;28;20172;-67
2022/06/07 05:02:43;;;;;;;0.30;0.30;;;17.20;74.70;;;;;;5075210;28;20178;-68
2022/06/07 05:05:13;;;;;;;0.87;0.43;;;17.40;77.80;;;;;;5091332;28;20625;-67
2022/06/07 05:07:40;;;;;;;0.70;0.70;;;17.40;78.10;;;;;;5091697;28;20313;-68
2022/06/07 05:10:10;;;;;;;3.60;0.60;;;17.50;78.90;;;;;;5095471;28;20167;-68
2022/06/07 05:12:38;;;;;;;0.80;0.40;;;17.60;76.80;;;;;;5095380;28;20204;-69
2022/06/07 05:15:07;;;;;;;0.73;0.40;;;17.70;77.70;;;;;;5095366;28;20222;-68
2022/06/07 05:17:34;;;;;;;7.30;4.30;;;17.60;77.30;;;;;;5095191;28;20190;-66
2022/06/07 05:20:02;;;;;;;2.10;1.30;;;17.60;76.60;;;;;;5095229;28;20198;-67
2022/06/07 05:22:29;;;;;;;0.87;0.60;;;17.50;76.90;;;;;;5094998;28;20766;-67
2022/06/07 05:24:56;;;;;;;1.43;0.97;;;17.30;79.30;;;;;;5076565;28;20183;-67
2022/06/07 05:27:25;;;;;;;1.43;0.50;;;16.90;79.80;;;;;;5076830;28;20219;-66
2022/06/07 05:29:55;;;;;;;1.03;0.40;;;16.60;84.20;;;;;;5095136;28;20171;-67
2022/06/07 05:32:22;;;;;;;0.63;0.47;;;16.50;90.40;;;;;;5095162;28;20586;-66
2022/06/07 05:34:50;;;;;;;0.97;0.43;;;16.20;93.30;;;;;;5094575;28;20497;-67
2022/06/07 05:37:22;;;;;;;1.07;0.50;;;16.00;94.60;;;;;;5094887;28;20177;-67
2022/06/07 05:39:50;;;;;;;2.67;0.70;;;15.80;96.70;;;;;;5094690;28;20179;-66
2022/06/07 05:42:18;;;;;;;1.03;0.60;;;15.60;98.90;;;;;;5094972;28;20552;-67
2022/06/07 05:44:45;;;;;;;2.13;0.53;;;15.40;99.90;;;;;;5094423;28;20251;-68
2022/06/07 05:47:13;;;;;;;0.40;0.40;;;15.30;99.90;;;;;;5094632;28;20588;-67
2022/06/07 05:49:40;;;;;;;1.40;0.50;;;15.20;99.90;;;;;;5094576;28;20167;-68
2022/06/07 05:52:08;;;;;;;1.90;0.40;;;15.20;99.90;;;;;;5094410;28;20212;-67
2022/06/07 05:54:38;;;;;;;1.83;0.43;;;15.10;99.90;;;;;;5094274;28;20236;-68
2022/06/07 05:57:07;;;;;;;1.13;0.60;;;15.00;99.90;;;;;;5094639;28;20183;-69
2022/06/07 05:59:34;;;;;;;0.97;0.50;;;14.90;99.90;;;;;;5094432;28;20185;-67
2022/06/07 06:02:02;;;;;;;1.10;0.50;;;14.80;99.90;;;;;;5076307;28;20290;-66
2022/06/07 06:04:29;;;;;;;0.30;0.30;;;14.80;99.90;;;;;;5093962;28;20236;-67
2022/06/07 06:06:58;;;;;;;0.40;0.40;;;14.60;99.90;;;;;;5094222;28;20210;-67
2022/06/07 06:12:11;;;;;;;0.50;0.40;;;14.50;99.90;;;;;;5094395;28;20190;-68
2022/06/07 06:14:38;;;;;;;1.47;0.50;;;14.50;99.90;;;;;;5075919;28;20719;-66
2022/06/07 06:17:06;;;;;;;0.57;0.50;;;14.40;99.90;;;;;;5094291;28;20179;-67
2022/06/07 06:19:34;;;;;;;1.00;0.40;;;14.40;99.90;;;;;;5093873;28;20592;-67
2022/06/07 06:22:01;;;;;;;0.70;0.50;;;14.30;99.90;;;;;;5094107;28;20241;-67
2022/06/07 06:24:28;;;;;;;1.93;1.30;;;14.20;99.90;;;;;;5093847;28;20243;-67
2022/06/07 06:26:56;;;;;;;2.30;0.80;;;14.30;99.90;;;;;;5093727;28;20575;-67
2022/06/07 06:29:24;;;;;;;1.07;0.40;;;14.20;99.90;;;;;;5093680;28;20175;-68
2022/06/07 06:31:53;;;;;;;0.70;0.40;;;14.10;99.90;;;;;;5094007;28;20640;-67
2022/06/07 06:34:21;;;;;;;1.10;0.80;;;14.00;99.90;;;;;;5093171;28;20539;-67
2022/06/07 06:36:48;;;;;;;2.93;1.00;;;13.90;99.90;;;;;;5093892;28;20194;-68
2022/06/07 06:39:16;;;;;;;2.07;1.00;;;14.00;99.90;;;;;;5093242;28;20178;-67
2022/06/07 06:41:46;;;;;;;1.77;1.17;;;13.90;99.90;;;;;;5093362;28;20192;-68
2022/06/07 06:44:14;;;;;;;1.63;0.93;;;13.90;99.90;;;;;;5087493;28;20190;-68
2022/06/07 06:46:45;;;;;;;3.20;0.80;;;13.80;99.90;;;;;;5093616;28;20236;-67
2022/06/07 06:49:14;;;;;;;0.60;0.60;;;13.70;99.90;;;;;;5093832;28;20632;-68
2022/06/07 06:51:42;;;;;;;0.93;0.60;;;13.60;99.90;;;;;;5093609;28;20252;-68
2022/06/07 06:54:12;;;;;;;0.87;0.60;;;13.40;99.90;;;;;;5093311;28;20265;-66
2022/06/07 06:56:40;;;;;;;2.87;0.70;;;13.40;99.90;;;;;;5093221;28;20183;-67
2022/06/07 06:59:08;;;;;;;1.53;0.97;;;13.20;99.90;;;;;;5093577;28;20173;-67
2022/06/07 07:01:38;;;;;;;0.83;0.50;;;13.10;99.90;;;;;;5075296;28;20180;-68
2022/06/07 07:04:10;;;;;;;1.67;0.90;;;13.20;99.90;;;;;;5058307;28;20241;-67
2022/06/07 07:06:37;;;;;;;5.40;0.50;;;13.20;99.90;;;;;;5093082;28;20204;-68
2022/06/07 07:09:06;;;;;;;0.40;0.40;;;13.20;99.90;;;;;;5092940;28;20261;-68
2022/06/07 07:11:44;;;;;;;0.50;0.50;;;13.30;99.90;;;;;;5093287;28;20176;-68
2022/06/07 07:14:12;;;;;;;0.97;0.50;;;13.30;99.90;;;;;;5092794;28;20181;-68
2022/06/07 07:16:48;;;;;;;2.47;0.60;;;13.20;99.90;;;;;;5093151;28;20199;-68
2022/06/07 07:19:17;;;;;;;0.50;0.50;;;13.30;99.90;;;;;;5092859;28;20259;-67
2022/06/07 07:21:47;;;;;;;0.47;0.47;;;13.20;99.90;;;;;;5092928;28;20199;-67
2022/06/07 07:24:20;;;;;;;1.20;0.47;;;13.20;99.90;;;;;;5092782;28;20188;-67
2022/06/07 07:26:49;;;;;;;1.03;0.50;;;13.20;99.90;;;;;;5074302;28;20237;-67
2022/06/07 07:29:19;;;;;;;0.67;0.50;;;13.20;99.90;;;;;;5092859;28;20306;-67
2022/06/07 07:31:46;;;;;;;1.30;0.60;;;13.10;99.90;;;;;;5091786;28;20265;-67
2022/06/07 07:34:16;;;;;;;1.00;0.90;;;13.20;99.90;;;;;;5092472;28;20182;-67
2022/06/07 07:36:47;;;;;;;0.53;0.53;;;13.20;99.90;;;;;;5092504;28;20193;-67
2022/06/07 07:39:15;;;;;;;0.97;0.60;;;13.20;99.90;;;;;;5092735;28;20265;-68
2022/06/07 07:41:45;;;;;;;1.90;0.63;;;13.20;99.90;;;;;;5092697;28;20178;-68
2022/06/07 07:44:14;;;;;;;0.70;0.70;;;13.20;99.90;;;;;;5092304;28;20184;-66
2022/06/07 07:46:44;;;;;;;0.57;0.50;;;13.20;99.90;;;;;;5092214;28;20525;-67
2022/06/07 07:49:17;;;;;;;0.80;0.40;;;13.20;99.90;;;;;;5092488;28;20181;-68
2022/06/07 07:51:46;;;;;;;1.80;0.60;;;13.10;99.90;;;;;;5091616;28;20187;-67
2022/06/07 07:54:18;;;;;;;1.07;0.60;;;13.30;99.90;;;;;;5092182;28;20216;-68
2022/06/07 07:56:45;;;;;;;3.50;0.50;;;13.30;99.90;;;;;;5092157;28;20196;-67
2022/06/07 07:59:15;;;;;;;0.70;0.40;;;13.30;99.90;;;;;;5092403;28;20195;-68
2022/06/07 08:01:43;;;;;;;0.40;0.40;;;13.30;99.90;;;;;;5092011;28;20183;-68
2022/06/07 08:04:10;;;;;;;0.50;0.50;;;13.20;99.90;;;;;;5091973;28;20715;-67
2022/06/07 08:06:39;;;;;;;0.47;0.47;;;13.20;99.90;;;;;;5092039;28;20229;-67
2022/06/07 08:09:08;;;;;;;1.80;0.60;;;13.10;99.90;;;;;;5092089;28;20212;-68
2022/06/07 08:11:38;;;;;;;2.47;0.63;;;13.00;99.90;;;;;;5091723;28;20186;-69
2022/06/07 08:14:08;;;;;;;1.33;0.50;;;12.90;99.90;;;;;;5092897;28;20221;-69
2022/06/07 08:16:36;;;;;;;0.50;0.50;;;12.70;99.90;;;;;;5092612;28;20223;-69
2022/06/07 08:19:04;;;;;;;0.70;0.70;;;12.50;99.90;;;;;;5087443;28;20232;-68
2022/06/07 08:21:31;;;;;;;1.27;1.10;;;12.40;99.90;;;;;;5073396;28;20641;-68
2022/06/07 08:23:59;;;;;;;2.20;1.23;;;12.30;99.90;;;;;;5072565;28;20198;-68
2022/06/07 08:26:28;;;;;;;0.60;0.60;;;12.20;99.90;;;;;;5074756;28;20585;-68
2022/06/07 08:28:56;;;;;;;0.80;0.40;;;12.20;99.90;;;;;;5093038;28;20205;-69
2022/06/07 08:31:28;;;;;;;2.70;0.53;;;12.00;99.90;;;;;;5092352;28;20208;-68
2022/06/07 08:39:28;;;;;;;0.77;0.50;;;11.70;99.90;;;;;;5093070;28;20219;-69
2022/06/07 08:42:02;;;;;;;0.70;0.60;;;11.70;99.90;;;;;;5095226;28;20175;-68
2022/06/07 08:45:14;;;;;;;0.77;0.77;;;11.60;99.90;;;;;;5099943;28;20229;-69
2022/06/07 08:47:54;;;;;;;1.30;1.20;;;11.50;99.90;;;;;;5083629;28;20683;-68
2022/06/07 08:50:34;;;;;;;1.87;1.77;;;11.40;99.90;;;;;;5097034;28;20198;-69
2022/06/07 08:53:22;;;;;;;1.13;1.03;;;11.30;99.90;;;;;;5096310;28;20180;-68
2022/06/07 08:55:54;;;;;;;0.80;0.80;;;11.20;99.90;;;;;;5078231;28;20187;-67
2022/06/07 08:58:24;;;;;;;1.03;0.90;;;11.10;99.90;;;;;;5096489;28;20297;-68
2022/06/07 09:00:57;;;;;;;0.93;0.70;;;11.00;99.90;;;;;;5096558;28;20183;-69
2022/06/07 09:03:47;;;;;;;1.17;0.60;;;10.90;99.90;;;;;;5096758;28;20184;-68
2022/06/07 09:06:23;;;;;;;0.60;0.60;;;10.80;99.90;;;;;;5096106;28;20191;-69
2022/06/07 09:08:57;;;;;;;1.10;0.70;;;10.80;99.90;;;;;;5096272;28;20192;-69
2022/06/07 09:14:32;;;;;;;1.30;0.60;;;10.60;99.90;;;;;;5096408;28;20213;-70
2022/06/07 09:17:02;;;;;;;0.80;0.63;;;10.40;99.90;;;;;;5096849;28;20636;-69
2022/06/07 09:19:31;;;;;;;0.77;0.60;;;10.30;99.90;;;;;;5096248;28;20536;-70
2022/06/07 09:22:01;;;;;;;0.70;0.70;;;10.30;99.90;;;;;;5096276;28;20175;-69
2022/06/07 09:24:41;;;;;;;0.83;0.70;;;10.20;99.90;;;;;;5095710;28;20492;-69
2022/06/07 09:27:21;;;;;;;1.40;0.83;;;10.20;99.90;;;;;;5085554;28;20220;-68
2022/06/07 09:30:19;;;;;;;0.87;0.80;;;10.10;99.90;;;;;;5076198;28;20202;-69
2022/06/07 09:32:51;;;;;;;1.40;1.10;;;10.10;99.90;;;;;;5076192;28;20275;-70
2022/06/07 09:35:20;;;;;;;3.70;1.07;;;10.10;99.90;;;;;;5057792;28;20183;-69
2022/06/07 09:38:11;;;;;;;1.57;1.40;;;10.10;99.90;;;;;;5075658;28;20168;-69
2022/06/07 09:40:47;;;;;;;1.20;1.10;;;10.10;99.90;;;;;;5066158;28;20670;-68
2022/06/07 09:43:17;;;;;;;1.20;1.10;;;10.10;99.90;;;;;;5086279;28;20307;-69
2022/06/07 09:45:53;;;;;;;1.50;1.13;;;10.10;99.90;;;;;;5078630;28;20292;-69
2022/06/07 09:48:41;;;;;;;2.33;1.20;;;10.10;99.90;;;;;;5061904;28;20179;-69
2022/06/07 09:51:14;;;;;;;1.10;1.00;;;10.00;99.90;;;;;;5077603;28;20182;-69
2022/06/07 09:53:47;;;;;;;1.40;0.97;;;9.80;99.90;;;;;;5094830;28;20177;-69
2022/06/07 09:56:39;;;;;;;1.67;1.30;;;9.80;99.90;;;;;;5095608;28;20205;-69
2022/06/07 09:59:30;;;;;;;2.10;1.33;;;9.80;99.90;;;;;;5095853;28;20179;-69
2022/06/07 10:02:23;;;;;;;3.93;1.30;;;9.80;99.90;;;;;;5075619;28;20187;-70
2022/06/07 10:05:21;;;;;;;3.73;1.20;;;9.70;99.90;;;;;;5075398;28;20204;-68
2022/06/07 10:07:49;;;;;;;1.50;1.20;;;9.70;99.90;;;;;;5064800;28;20609;-69
2022/06/07 10:10:16;;;;;;;6.17;1.20;;;9.60;99.90;;;;;;5075182;28;20225;-69
2022/06/07 10:13:13;;;;;;;0.80;0.80;;;9.50;99.90;;;;;;5075264;28;20183;-69
2022/06/07 10:15:44;;;;;;;0.93;0.93;;;9.60;99.90;;;;;;5074994;28;20206;-69
2022/06/07 10:18:15;;;;;;;1.33;0.73;;;9.60;99.90;;;;;;5074983;28;20207;-68
2022/06/07 10:21:30;;;;;;;1.37;1.00;;;9.60;99.90;;;;;;5075053;28;20198;-69
2022/06/07 10:24:39;;;;;;;3.90;0.90;;;9.70;99.90;;;;;;5069824;28;20675;-69
2022/06/07 10:27:18;;;;;;;2.67;0.90;;;9.80;99.90;;;;;;5066407;28;20693;-69
2022/06/07 10:30:16;;;;;;;1.10;1.00;;;9.80;99.90;;;;;;5075109;28;20219;-68
2022/06/07 10:33:07;;;;;;;2.37;1.00;;;9.70;99.90;;;;;;5074908;28;20187;-68
2022/06/07 10:35:41;;;;;;;3.27;1.07;;;9.70;99.90;;;;;;5075244;28;20205;-69
2022/06/07 10:38:15;;;;;;;2.80;1.10;;;9.60;99.90;;;;;;5074732;28;20606;-70
2022/06/07 10:41:04;;;;;;;1.67;1.03;;;9.50;99.90;;;;;;5074829;28;20203;-69
2022/06/07 10:44:06;;;;;;;1.63;0.87;;;9.50;99.90;;;;;;5074432;28;20594;-68
2022/06/07 10:46:38;;;;;;;5.43;1.10;;;9.40;99.90;;;;;;5056312;28;20632;-69
2022/06/07 10:49:15;;;;;;;2.50;1.00;;;9.60;99.90;;;;;;5074628;28;20656;-69
2022/06/07 10:52:20;;;;;;;2.07;1.40;;;9.40;99.90;;;;;;5074678;28;20651;-69
2022/06/07 10:55:09;;;;;;;3.00;1.23;;;9.30;99.90;;;;;;5074428;28;20251;-68
2022/06/07 10:57:40;;;;;;;4.50;1.33;;;9.30;99.90;;;;;;5074418;28;20168;-69
2022/06/07 11:00:36;;;;;;;3.30;1.20;;;9.20;99.90;;;;;;5074466;28;20211;-69
2022/06/07 11:03:26;;;;;;;4.17;1.83;;;9.20;99.90;;;;;;5074312;28;20185;-70
2022/06/07 11:11:41;;;;;;;1.70;1.30;;;8.70;99.90;;;;;;5074267;28;20649;-69
2022/06/07 11:14:08;;;;;;;1.97;1.60;;;8.50;99.90;;;;;;5081215;28;20186;-67
2022/06/07 11:16:50;;;;;;;2.93;1.10;;;8.30;99.90;;;;;;5093859;28;20187;-68
2022/06/07 11:19:18;;;;;;;1.43;1.17;;;8.20;99.90;;;;;;5094298;28;20265;-69
2022/06/07 11:21:49;;;;;;;1.40;1.30;;;8.20;99.90;;;;;;5093916;28;20179;-68
2022/06/07 11:24:19;;;;;;;1.20;1.10;;;8.10;99.90;;;;;;5093940;28;20215;-68
2022/06/07 11:26:53;;;;;;;2.00;1.60;;;8.10;99.90;;;;;;5093879;28;20241;-69
2022/06/07 11:29:23;;;;;;;3.97;2.67;;;7.90;99.90;;;;;;5075688;28;20265;-69
2022/06/07 11:31:52;;;;;;;3.33;2.57;;;7.80;99.90;;;;;;5093962;28;20648;-69
2022/06/07 11:34:27;;;;;;;2.03;1.57;;;7.80;99.90;;;;;;5093722;28;20186;-68
2022/06/07 11:37:09;;;;;;;1.23;1.13;;;7.70;99.90;;;;;;5094065;28;20211;-69
2022/06/07 11:39:39;;;;;;;1.77;1.50;;;7.60;99.90;;;;;;5094069;28;20693;-68
2022/06/07 11:42:20;;;;;;;5.03;1.20;;;7.50;99.90;;;;;;5075506;28;20539;-67
2022/06/07 11:45:18;;;;;;;2.43;1.43;;;7.50;99.90;;;;;;5093752;28;20173;-69
2022/06/07 11:47:45;;;;;;;1.80;1.33;;;7.60;99.90;;;;;;5093545;28;20699;-69
2022/06/07 11:50:28;;;;;;;1.90;1.37;;;7.70;99.90;;;;;;5093537;28;20567;-69
2022/06/07 11:53:14;;;;;;;1.40;1.30;;;7.80;99.90;;;;;;5093697;28;20175;-69
2022/06/07 11:55:44;;;;;;;1.53;1.30;;;7.90;99.90;;;;;;5075075;28;20184;-69
2022/06/07 11:58:11;;;;;;;1.33;1.10;;;8.00;99.90;;;;;;5093620;28;20187;-68
2022/06/07 12:00:43;;;;;;;2.37;1.20;;;8.10;99.90;;;;;;5093428;28;20536;-68
2022/06/07 12:03:33;;;;;;;1.47;1.23;;;8.20;99.90;;;;;;5087384;28;20266;-68
2022/06/07 12:06:20;;;;;;;1.67;1.43;;;8.30;99.90;;;;;;5080931;28;20212;-68
2022/06/07 12:09:01;;;;;;;3.87;1.60;;;8.30;99.90;;;;;;5075387;28;20214;-68
2022/06/07 12:11:43;;;;;;;1.50;1.40;;;8.40;99.90;;;;;;5073066;28;20186;-67
2022/06/07 12:14:34;;;;;;;3.00;1.20;;;8.50;99.90;;;;;;5073006;28;20194;-68
2022/06/07 12:17:17;;;;;;;1.47;1.20;;;8.40;99.90;;;;;;5054591;28;20185;-68
2022/06/07 12:19:47;;;;;;;1.53;1.37;;;8.40;99.90;;;;;;5073349;28;20191;-68
2022/06/07 12:22:18;;;;;;;2.50;1.80;;;8.50;99.90;;;;;;5054970;28;20641;-69
2022/06/07 12:24:49;;;;;;;1.60;1.50;;;8.60;99.90;;;;;;5072795;28;20187;-69
2022/06/07 12:27:35;;;;;;;4.20;1.27;;;8.60;99.90;;;;;;5068326;28;20321;-68
2022/06/07 12:30:36;;;;;;;1.43;1.20;;;8.60;99.90;;;;;;5086343;28;20293;-68
2022/06/07 12:33:28;;;;;;;1.30;1.20;;;8.50;99.90;;;;;;5073544;28;20240;-69
2022/06/07 12:36:09;;;;;;;1.30;1.13;;;8.60;99.90;;;;;;5093108;28;20320;-69
2022/06/07 12:38:36;;;;;;;3.63;2.10;;;8.60;99.90;;;;;;5072716;28;20191;-69
2022/06/07 12:41:07;;;;;;;1.27;1.17;;;8.80;99.90;;;;;;5054708;28;20324;-68
2022/06/07 12:43:45;;;;;;;1.10;0.93;;;8.80;99.90;;;;;;5054622;28;20177;-68
2022/06/07 12:46:22;;;;;;;1.70;1.00;;;8.90;99.90;;;;;;5072568;28;20706;-68
2022/06/07 12:48:51;;;;;;;2.80;1.20;;;8.90;99.90;;;;;;5072460;28;20636;-69
2022/06/07 12:51:26;;;;;;;2.43;1.07;;;9.00;99.90;;;;;;5079856;28;20188;-67
2022/06/07 12:54:09;;;;;;;2.10;1.40;;;8.90;99.90;;;;;;5068302;28;20193;-68
2022/06/07 12:56:41;;;;;;;2.23;1.20;;;8.80;99.90;;;;;;5077744;28;20192;-67
2022/06/07 12:59:15;;;;;;;1.50;1.23;;;8.60;99.90;;;;;;5075127;28;20556;-68
2022/06/07 13:01:42;;;;;;;1.83;1.20;;;8.50;99.90;;;;;;5084479;28;20182;-67
2022/06/07 13:04:29;;;;;;;1.07;1.00;;;8.40;99.90;;;;;;5085854;28;20194;-68
2022/06/07 13:07:29;;;;;;;1.10;1.00;;;8.40;99.90;;;;;;5085571;28;20219;-68
2022/06/07 13:10:04;;;;;;;1.00;0.90;;;8.50;99.90;;;;;;5083345;28;20178;-68
2022/06/07 13:12:44;;;;;;;1.20;1.10;;;8.40;99.90;;;;;;5082755;28;20230;-67
2022/06/07 13:15:37;;;;;;;1.30;1.20;;;8.30;99.90;;;;;;5082982;28;20275;-68
2022/06/07 13:18:22;;;;;;;2.27;1.03;;;8.30;99.90;;;;;;5076426;28;20188;-67
2022/06/07 13:21:03;;;;;;;1.10;1.00;;;8.20;99.90;;;;;;5082030;28;20194;-69
2022/06/07 13:23:38;;;;;;;2.03;0.77;;;8.10;99.90;;;;;;5053798;28;20238;-68
2022/06/07 13:26:44;;;;;;;0.87;0.87;;;8.10;99.90;;;;;;5077873;28;20283;-68
2022/06/07 13:29:12;;;;;;;0.93;0.90;;;8.00;99.90;;;;;;5093336;28;20545;-68
2022/06/07 13:31:43;;;;;;;1.70;1.13;;;7.70;99.90;;;;;;5096059;28;20186;-67
2022/06/07 13:34:21;;;;;;;3.13;1.07;;;7.60;99.90;;;;;;5096418;28;20691;-67
2022/06/07 13:37:03;;;;;;;1.77;1.00;;;7.60;99.90;;;;;;5096146;28;20181;-67
2022/06/07 13:39:32;;;;;;;2.13;1.30;;;7.50;99.90;;;;;;5096444;28;20178;-67
2022/06/07 13:42:41;;;;;;;1.83;1.10;;;7.40;99.90;;;;;;5095888;28;20187;-68
2022/06/07 13:45:17;;;;;;;1.40;1.17;;;7.30;99.90;;;;;;5095859;28;20171;-69